Time;durP1;ratioP1;P1;durP2;ratioP2;P2;SDS_P1;SDS_P2;PMS_P1;PMS_P2;Temp;Humidity;BMP_temperature;BMP_pressure;BME280_temperature;BME280_humidity;BME280_pressure;Samples;Min_cycle;Max_cycle;Signal;HPM_P1;HPM_P2
2022/05/06 00:00:06;;;;;;;0.70;0.70;;;;;;;;;;1888336;75;26234;-42
2022/05/06 00:02:34;;;;;;;0.80;0.80;;;;;;;;;;1890117;75;26341;-43
2022/05/06 00:05:01;;;;;;;1.47;0.90;;;;;;;;;;1853229;77;26552;-43
2022/05/06 00:07:29;;;;;;;0.80;0.80;;;;;;;;;;1850379;77;26263;-43
2022/05/06 00:09:56;;;;;;;0.80;0.80;;;;;;;;;;1886951;74;26305;-44
2022/05/06 00:12:24;;;;;;;1.20;0.82;;;;;;;;;;1897556;75;26342;-45
2022/05/06 00:14:51;;;;;;;0.72;0.72;;;;;;;;;;1856957;76;26331;-43
2022/05/06 00:17:18;;;;;;;0.85;0.85;;;;;;;;;;1854691;76;26248;-43
2022/05/06 00:19:46;;;;;;;0.85;0.80;;;;;;;;;;1823239;78;26341;-43
2022/05/06 00:22:13;;;;;;;0.70;0.70;;;;;;;;;;1868446;76;26269;-43
2022/05/06 00:24:41;;;;;;;0.80;0.80;;;;;;;;;;1843357;76;26347;-42
2022/05/06 00:27:09;;;;;;;0.80;0.80;;;;;;;;;;1894377;74;26332;-45
2022/05/06 00:29:37;;;;;;;0.80;0.80;;;;;;;;;;1869703;75;26257;-45
2022/05/06 00:32:06;;;;;;;0.88;0.85;;;;;;;;;;1833936;76;26254;-45
2022/05/06 00:34:33;;;;;;;1.65;0.90;;;;;;;;;;1863209;75;26840;-43
2022/05/06 00:37:00;;;;;;;0.88;0.85;;;;;;;;;;1875170;75;26258;-43
2022/05/06 00:39:28;;;;;;;0.88;0.88;;;;;;;;;;1862818;75;26336;-44
2022/05/06 00:41:56;;;;;;;0.80;0.80;;;;;;;;;;1897942;74;26256;-44
2022/05/06 00:44:25;;;;;;;0.80;0.80;;;;;;;;;;1912592;73;26860;-44
2022/05/06 00:46:53;;;;;;;1.30;0.80;;;;;;;;;;1895088;74;26324;-43
2022/05/06 00:49:21;;;;;;;0.90;0.90;;;;;;;;;;1911855;73;26606;-41
2022/05/06 00:51:51;;;;;;;0.90;0.90;;;;;;;;;;1916331;73;26259;-43
2022/05/06 00:54:21;;;;;;;0.80;0.80;;;;;;;;;;1904885;74;26738;-42
2022/05/06 00:56:47;;;;;;;0.80;0.80;;;;;;;;;;1903221;73;26347;-45
2022/05/06 00:59:15;;;;;;;0.90;0.90;;;;;;;;;;1896171;74;26634;-44
2022/05/06 01:01:43;;;;;;;0.80;0.80;;;;;;;;;;1900771;73;26244;-45
2022/05/06 01:04:11;;;;;;;1.37;0.82;;;;;;;;;;1911633;74;26260;-45
2022/05/06 01:06:38;;;;;;;0.72;0.72;;;;;;;;;;1925922;73;26301;-43
2022/05/06 01:09:05;;;;;;;0.60;0.60;;;;;;;;;;1916920;73;26676;-47
2022/05/06 01:11:33;;;;;;;1.37;0.90;;;;;;;;;;1935882;73;26878;-45
2022/05/06 01:14:00;;;;;;;0.70;0.70;;;;;;;;;;1909789;73;26309;-44
2022/05/06 01:16:29;;;;;;;0.75;0.75;;;;;;;;;;1916284;74;26230;-44
2022/05/06 01:18:56;;;;;;;0.90;0.90;;;;;;;;;;1891810;73;26252;-44
2022/05/06 01:21:24;;;;;;;0.82;0.72;;;;;;;;;;1912135;74;26291;-45
2022/05/06 01:23:51;;;;;;;0.78;0.75;;;;;;;;;;1914426;73;26239;-43
2022/05/06 01:26:19;;;;;;;0.82;0.82;;;;;;;;;;1921984;73;26260;-45
2022/05/06 01:28:46;;;;;;;0.90;0.90;;;;;;;;;;1905232;73;26300;-42
2022/05/06 01:31:15;;;;;;;0.90;0.90;;;;;;;;;;1912582;74;26671;-45
2022/05/06 01:33:42;;;;;;;1.60;0.80;;;;;;;;;;1910507;73;26830;-43
2022/05/06 01:36:11;;;;;;;0.80;0.80;;;;;;;;;;1937402;73;26816;-45
2022/05/06 01:38:40;;;;;;;1.02;1.02;;;;;;;;;;1917492;73;26248;-44
2022/05/06 01:41:12;;;;;;;0.80;0.80;;;;;;;;;;1911279;73;26258;-45
2022/05/06 01:43:42;;;;;;;0.80;0.80;;;;;;;;;;1900678;73;26799;-46
2022/05/06 01:46:11;;;;;;;0.72;0.72;;;;;;;;;;1920718;73;26354;-44
2022/05/06 01:48:41;;;;;;;0.80;0.80;;;;;;;;;;1931499;73;26254;-44
2022/05/06 01:51:10;;;;;;;0.80;0.80;;;;;;;;;;1911370;73;26227;-45
2022/05/06 01:53:37;;;;;;;0.70;0.70;;;;;;;;;;1904054;73;26186;-42
2022/05/06 01:56:05;;;;;;;1.00;1.00;;;;;;;;;;1913137;73;26530;-44
2022/05/06 01:58:32;;;;;;;0.70;0.70;;;;;;;;;;1912808;73;26303;-42
2022/05/06 02:00:59;;;;;;;0.80;0.80;;;;;;;;;;1908937;73;26238;-45
2022/05/06 02:06:12;;;;;;;0.85;0.85;;;;;;;;;;1908687;73;26742;-43
2022/05/06 02:08:40;;;;;;;0.98;0.80;;;;;;;;;;1908269;73;26242;-42
2022/05/06 02:11:07;;;;;;;0.95;0.95;;;;;;;;;;1928869;73;26599;-44
2022/05/06 02:13:35;;;;;;;0.80;0.80;;;;;;;;;;1913900;73;26299;-44
2022/05/06 02:16:02;;;;;;;0.82;0.68;;;;;;;;;;1906139;73;26326;-44
2022/05/06 02:18:30;;;;;;;0.80;0.80;;;;;;;;;;1924725;73;26231;-44
2022/05/06 02:20:58;;;;;;;0.68;0.68;;;;;;;;;;1925725;73;26729;-46
2022/05/06 02:23:27;;;;;;;0.80;0.80;;;;;;;;;;1899524;73;27405;-44
2022/05/06 02:25:55;;;;;;;0.90;0.90;;;;;;;;;;1913055;73;26282;-43
2022/05/06 02:28:22;;;;;;;0.70;0.70;;;;;;;;;;1902836;73;26254;-45
2022/05/06 02:33:35;;;;;;;0.72;0.72;;;;;;;;;;1910676;73;26356;-44
2022/05/06 02:36:03;;;;;;;0.70;0.70;;;;;;;;;;1900819;74;26310;-44
2022/05/06 02:38:30;;;;;;;0.70;0.70;;;;;;;;;;1887878;74;26380;-46
2022/05/06 02:40:58;;;;;;;1.07;0.93;;;;;;;;;;1913052;73;26231;-44
2022/05/06 02:43:25;;;;;;;0.80;0.80;;;;;;;;;;1906233;74;26311;-43
2022/05/06 02:45:53;;;;;;;0.70;0.70;;;;;;;;;;1896086;73;26899;-43
2022/05/06 02:48:20;;;;;;;0.75;0.75;;;;;;;;;;1908250;74;26752;-44
2022/05/06 02:50:47;;;;;;;0.62;0.62;;;;;;;;;;1914963;73;26248;-44
2022/05/06 02:53:15;;;;;;;0.60;0.60;;;;;;;;;;1910650;73;26231;-42
2022/05/06 02:55:42;;;;;;;0.70;0.70;;;;;;;;;;1891456;73;26331;-44
2022/05/06 02:58:09;;;;;;;0.70;0.70;;;;;;;;;;1930760;73;26332;-47
2022/05/06 03:00:37;;;;;;;0.70;0.70;;;;;;;;;;1908675;74;26843;-43
2022/05/06 03:03:05;;;;;;;0.80;0.80;;;;;;;;;;1910677;73;26230;-44
2022/05/06 03:05:33;;;;;;;0.80;0.80;;;;;;;;;;1912684;74;26605;-47
2022/05/06 03:08:00;;;;;;;0.68;0.68;;;;;;;;;;1914437;73;26274;-44
2022/05/06 03:10:27;;;;;;;0.75;0.75;;;;;;;;;;1917869;73;26263;-45
2022/05/06 03:12:58;;;;;;;0.50;0.50;;;;;;;;;;1914532;73;26309;-47
2022/05/06 03:15:25;;;;;;;0.68;0.68;;;;;;;;;;1896864;74;26304;-44
2022/05/06 03:17:53;;;;;;;1.27;0.90;;;;;;;;;;1909370;74;26709;-46
2022/05/06 03:20:21;;;;;;;0.70;0.70;;;;;;;;;;1903705;74;26270;-43
2022/05/06 03:22:50;;;;;;;0.70;0.70;;;;;;;;;;1908056;74;26825;-42
2022/05/06 03:25:19;;;;;;;0.70;0.70;;;;;;;;;;1910232;73;26867;-43
2022/05/06 03:27:59;;;;;;;0.75;0.75;;;;;;;;;;1912320;74;26269;-45
2022/05/06 03:30:27;;;;;;;0.70;0.70;;;;;;;;;;1892533;74;26227;-45
2022/05/06 03:32:55;;;;;;;1.50;0.70;;;;;;;;;;1896837;74;27310;-45
2022/05/06 03:35:23;;;;;;;0.57;0.57;;;;;;;;;;1905320;74;26323;-43
2022/05/06 03:37:52;;;;;;;0.70;0.70;;;;;;;;;;1902030;74;26580;-44
2022/05/06 03:40:20;;;;;;;0.70;0.70;;;;;;;;;;1907934;74;26251;-44
2022/05/06 03:42:47;;;;;;;4.05;0.70;;;;;;;;;;1909743;73;26765;-43
2022/05/06 03:45:15;;;;;;;0.60;0.60;;;;;;;;;;1907393;74;26757;-45
2022/05/06 03:47:42;;;;;;;0.60;0.60;;;;;;;;;;1901670;73;26278;-45
2022/05/06 03:52:55;;;;;;;0.70;0.70;;;;;;;;;;1913147;73;26389;-47
2022/05/06 03:55:23;;;;;;;1.27;0.50;;;;;;;;;;1914100;73;26226;-44
2022/05/06 03:57:51;;;;;;;0.60;0.60;;;;;;;;;;1911475;73;26893;-48
2022/05/06 04:00:19;;;;;;;1.55;0.60;;;;;;;;;;1899205;73;26224;-46
2022/05/06 04:02:47;;;;;;;0.80;0.80;;;;;;;;;;1893679;74;26321;-45
2022/05/06 04:05:14;;;;;;;0.72;0.68;;;;;;;;;;1920485;73;27205;-43
2022/05/06 04:07:42;;;;;;;0.80;0.80;;;;;;;;;;1915245;73;26248;-42
2022/05/06 04:10:09;;;;;;;0.70;0.70;;;;;;;;;;1905349;73;26327;-46
2022/05/06 04:12:37;;;;;;;3.22;0.75;;;;;;;;;;1922759;73;26257;-44
2022/05/06 04:15:06;;;;;;;0.95;0.70;;;;;;;;;;1908961;73;25957;-44
2022/05/06 04:17:33;;;;;;;0.85;0.80;;;;;;;;;;1910596;74;26248;-46
2022/05/06 04:25:31;;;;;;;1.65;0.90;;;;;;;;;;1906112;73;26782;-43
2022/05/06 04:27:58;;;;;;;0.70;0.70;;;;;;;;;;1935219;73;27257;-42
2022/05/06 04:30:26;;;;;;;2.77;0.70;;;;;;;;;;1911562;74;25333;-44
2022/05/06 04:32:53;;;;;;;0.80;0.80;;;;;;;;;;1912072;73;26688;-43
2022/05/06 04:35:21;;;;;;;1.37;0.53;;;;;;;;;;1914401;74;26819;-43
2022/05/06 04:37:48;;;;;;;1.70;0.70;;;;;;;;;;1923223;73;26762;-45
2022/05/06 04:40:16;;;;;;;0.85;0.80;;;;;;;;;;1924065;74;26514;-42
2022/05/06 04:42:45;;;;;;;0.93;0.75;;;;;;;;;;1922929;73;26350;-43
2022/05/06 04:45:12;;;;;;;1.72;0.80;;;;;;;;;;1932453;73;26328;-45
2022/05/06 04:47:39;;;;;;;0.60;0.60;;;;;;;;;;1923057;74;26258;-43
2022/05/06 04:50:08;;;;;;;0.93;0.70;;;;;;;;;;1938065;73;26309;-44
2022/05/06 04:52:35;;;;;;;0.72;0.60;;;;;;;;;;1918240;73;26239;-44
2022/05/06 04:55:02;;;;;;;1.22;0.70;;;;;;;;;;1930361;73;26324;-43
2022/05/06 04:57:30;;;;;;;1.98;0.80;;;;;;;;;;1930259;73;26989;-42
2022/05/06 04:59:57;;;;;;;0.60;0.60;;;;;;;;;;1924251;73;26227;-43
2022/05/06 05:02:26;;;;;;;0.65;0.60;;;;;;;;;;1919880;73;26230;-44
2022/05/06 05:04:57;;;;;;;1.10;0.70;;;;;;;;;;1923165;73;26341;-43
2022/05/06 05:07:22;;;;;;;1.20;0.75;;;;;;;;;;1938768;73;26326;-44
2022/05/06 05:09:50;;;;;;;0.72;0.72;;;;;;;;;;1922833;73;27161;-42
2022/05/06 05:12:18;;;;;;;0.93;0.68;;;;;;;;;;1910829;73;26225;-45
2022/05/06 05:14:45;;;;;;;2.00;0.80;;;;;;;;;;1891089;74;26811;-42
2022/05/06 05:17:13;;;;;;;2.98;0.80;;;;;;;;;;1860032;76;26672;-43
2022/05/06 05:19:40;;;;;;;1.47;0.70;;;;;;;;;;1885889;75;26662;-44
2022/05/06 05:22:08;;;;;;;3.65;1.30;;;;;;;;;;1882130;74;26342;-45
2022/05/06 05:24:35;;;;;;;3.17;0.90;;;;;;;;;;1890469;74;27476;-46
2022/05/06 05:27:03;;;;;;;0.95;0.80;;;;;;;;;;1887128;74;26338;-42
2022/05/06 05:29:30;;;;;;;6.22;1.00;;;;;;;;;;1888429;74;26240;-43
2022/05/06 05:31:57;;;;;;;5.95;1.00;;;;;;;;;;1881789;74;26256;-45
2022/05/06 05:34:25;;;;;;;3.42;0.80;;;;;;;;;;1882247;74;26241;-43
2022/05/06 05:36:53;;;;;;;3.62;0.90;;;;;;;;;;1876335;75;26651;-42
2022/05/06 05:39:20;;;;;;;2.45;0.78;;;;;;;;;;1904675;73;26285;-42
2022/05/06 05:41:47;;;;;;;0.70;0.70;;;;;;;;;;1919649;73;26504;-42
2022/05/06 05:49:45;;;;;;;5.90;1.10;;;;;;;;;;1919034;73;26754;-43
2022/05/06 05:52:12;;;;;;;6.42;1.00;;;;;;;;;;1921915;73;26239;-42
2022/05/06 05:54:40;;;;;;;3.42;1.07;;;;;;;;;;1908312;74;26266;-41
2022/05/06 05:57:08;;;;;;;4.30;1.00;;;;;;;;;;1890605;73;26238;-42
2022/05/06 05:59:35;;;;;;;4.62;1.30;;;;;;;;;;1900430;74;26777;-44
2022/05/06 06:02:02;;;;;;;4.75;0.90;;;;;;;;;;1902042;73;26258;-42
2022/05/06 06:04:30;;;;;;;3.08;1.10;;;;;;;;;;1901255;73;26330;-43
2022/05/06 06:06:57;;;;;;;6.15;1.07;;;;;;;;;;1900459;74;26272;-44
2022/05/06 06:09:27;;;;;;;6.78;1.37;;;;;;;;;;1916662;73;26273;-43
2022/05/06 06:11:53;;;;;;;4.97;1.17;;;;;;;;;;1912091;74;26457;-43
2022/05/06 06:14:21;;;;;;;10.50;1.40;;;;;;;;;;1911997;74;26273;-43
2022/05/06 06:16:50;;;;;;;5.78;1.32;;;;;;;;;;1914645;74;26331;-42
2022/05/06 06:19:18;;;;;;;5.92;1.55;;;;;;;;;;1912633;74;26742;-42
2022/05/06 06:21:45;;;;;;;2.80;1.22;;;;;;;;;;1910546;74;26250;-42
2022/05/06 06:24:13;;;;;;;3.83;1.30;;;;;;;;;;1915196;74;27343;-45
2022/05/06 06:26:40;;;;;;;6.17;1.27;;;;;;;;;;1909531;74;26262;-44
2022/05/06 06:29:08;;;;;;;7.20;1.20;;;;;;;;;;1911524;74;26247;-43
2022/05/06 06:31:37;;;;;;;4.40;1.42;;;;;;;;;;1899804;73;26358;-43
2022/05/06 06:34:04;;;;;;;2.42;1.35;;;;;;;;;;1927632;73;27493;-42
2022/05/06 06:36:32;;;;;;;2.00;1.00;;;;;;;;;;1915980;74;26362;-44
2022/05/06 06:39:00;;;;;;;5.42;1.30;;;;;;;;;;1920787;74;26717;-42
2022/05/06 06:41:27;;;;;;;5.45;1.12;;;;;;;;;;1904665;73;26663;-42
2022/05/06 06:43:55;;;;;;;3.95;0.98;;;;;;;;;;1921138;73;26202;-43
2022/05/06 06:46:23;;;;;;;2.72;1.15;;;;;;;;;;1916171;73;26709;-42
2022/05/06 06:48:51;;;;;;;2.33;1.00;;;;;;;;;;1921120;73;26804;-44
2022/05/06 06:51:19;;;;;;;1.80;1.00;;;;;;;;;;1928946;73;26264;-42
2022/05/06 06:53:48;;;;;;;3.40;1.17;;;;;;;;;;1927026;74;26289;-44
2022/05/06 06:56:15;;;;;;;3.72;0.98;;;;;;;;;;1922972;74;26314;-40
2022/05/06 06:58:42;;;;;;;1.98;1.20;;;;;;;;;;1923476;74;26274;-43
2022/05/06 07:01:11;;;;;;;2.20;0.95;;;;;;;;;;1922439;74;26319;-43
2022/05/06 07:03:39;;;;;;;2.22;1.10;;;;;;;;;;1917354;74;26931;-43
2022/05/06 07:11:53;;;;;;;5.50;1.20;;;;;;;;;;1907241;74;26394;-42
2022/05/06 07:14:21;;;;;;;2.33;1.00;;;;;;;;;;1920500;74;26269;-43
2022/05/06 07:16:49;;;;;;;1.47;0.98;;;;;;;;;;1925865;73;26761;-41
2022/05/06 07:19:16;;;;;;;3.22;1.20;;;;;;;;;;1922714;73;26256;-42
2022/05/06 07:21:44;;;;;;;2.98;1.10;;;;;;;;;;1926579;73;26226;-41
2022/05/06 07:24:11;;;;;;;1.32;1.10;;;;;;;;;;1922956;74;26667;-41
2022/05/06 07:26:39;;;;;;;4.87;1.20;;;;;;;;;;1928656;74;26223;-40
2022/05/06 07:29:06;;;;;;;3.85;1.12;;;;;;;;;;1921810;74;26318;-42
2022/05/06 07:31:33;;;;;;;1.90;1.10;;;;;;;;;;1926437;73;26314;-44
2022/05/06 07:34:01;;;;;;;1.30;1.10;;;;;;;;;;1924319;74;26761;-43
2022/05/06 07:36:28;;;;;;;2.75;1.30;;;;;;;;;;1919539;74;26755;-41
2022/05/06 07:38:56;;;;;;;5.70;1.60;;;;;;;;;;1913665;74;26324;-45
2022/05/06 07:41:23;;;;;;;7.53;1.67;;;;;;;;;;1895976;73;26248;-41
2022/05/06 07:43:50;;;;;;;7.50;1.62;;;;;;;;;;1909282;74;26271;-40
2022/05/06 07:46:18;;;;;;;7.92;1.80;;;;;;;;;;1915675;73;26335;-42
2022/05/06 07:48:45;;;;;;;8.98;2.02;;;;;;;;;;1919914;74;26694;-42
2022/05/06 07:51:13;;;;;;;5.83;1.67;;;;;;;;;;1913085;74;26254;-42
2022/05/06 07:53:40;;;;;;;3.87;1.57;;;;;;;;;;1912242;74;26258;-42
2022/05/06 07:56:08;;;;;;;3.05;1.60;;;;;;;;;;1915301;74;26854;-41
2022/05/06 07:58:38;;;;;;;5.25;1.70;;;;;;;;;;1930877;73;26208;-41
2022/05/06 08:01:06;;;;;;;2.35;1.50;;;;;;;;;;1925446;74;26351;-41
2022/05/06 08:06:19;;;;;;;4.42;1.62;;;;;;;;;;1913883;74;26352;-41
2022/05/06 08:08:47;;;;;;;2.80;1.60;;;;;;;;;;1924620;74;26277;-43
2022/05/06 08:11:14;;;;;;;6.40;2.00;;;;;;;;;;1902971;73;26951;-44
2022/05/06 08:13:41;;;;;;;3.08;1.62;;;;;;;;;;1895249;73;26701;-48
2022/05/06 08:16:09;;;;;;;7.10;1.60;;;;;;;;;;1900845;74;26249;-62
2022/05/06 08:18:37;;;;;;;2.87;1.45;;;;;;;;;;1913916;74;26278;-61
2022/05/06 08:21:04;;;;;;;5.00;1.85;;;;;;;;;;1907526;74;26292;-51
2022/05/06 08:23:31;;;;;;;1.60;1.50;;;;;;;;;;1928287;74;26250;-42
2022/05/06 08:26:00;;;;;;;2.80;1.40;;;;;;;;;;1912790;74;26306;-43
2022/05/06 08:28:29;;;;;;;4.35;1.55;;;;;;;;;;1913086;74;27193;-50
2022/05/06 08:30:57;;;;;;;1.85;1.65;;;;;;;;;;1915149;74;26328;-56
2022/05/06 08:33:26;;;;;;;3.08;1.77;;;;;;;;;;1914897;74;26250;-53
2022/05/06 08:35:53;;;;;;;1.70;1.60;;;;;;;;;;1915989;74;26297;-47
2022/05/06 08:38:21;;;;;;;2.25;1.60;;;;;;;;;;1923651;73;26263;-53
2022/05/06 08:40:50;;;;;;;1.87;1.35;;;;;;;;;;1916215;74;26284;-60
2022/05/06 08:43:17;;;;;;;1.82;1.60;;;;;;;;;;1911955;74;26269;-51
2022/05/06 08:51:18;;;;;;;2.35;1.50;;;;;;;;;;1905884;74;26341;-48
2022/05/06 08:53:45;;;;;;;1.72;1.60;;;;;;;;;;1924026;74;26290;-43
2022/05/06 08:56:13;;;;;;;1.87;1.45;;;;;;;;;;1909398;74;26902;-45
2022/05/06 08:58:41;;;;;;;4.20;1.40;;;;;;;;;;1917657;74;26253;-42
2022/05/06 09:01:09;;;;;;;2.30;1.40;;;;;;;;;;1910133;74;26391;-41
2022/05/06 09:03:40;;;;;;;2.98;1.50;;;;;;;;;;1912493;74;26481;-47
2022/05/06 09:06:13;;;;;;;4.75;1.70;;;;;;;;;;1912095;73;26343;-41
2022/05/06 09:08:42;;;;;;;1.52;1.30;;;;;;;;;;1910319;74;26297;-44
2022/05/06 09:11:09;;;;;;;2.83;1.65;;;;;;;;;;1908724;74;26338;-46
2022/05/06 09:13:37;;;;;;;3.77;1.87;;;;;;;;;;1909175;74;26250;-43
2022/05/06 09:19:18;;;;;;;1.95;1.60;;;;;;;;;;1914905;74;26314;-42
2022/05/06 09:22:11;;;;;;;2.10;1.40;;;;;;;;;;1926016;74;26259;-42
2022/05/06 09:24:34;;;;;;;3.65;1.50;;;;;;;;;;1910405;74;26301;-41
2022/05/06 09:27:05;;;;;;;2.37;1.70;;;;;;;;;;1911699;74;26702;-47
2022/05/06 09:29:34;;;;;;;5.75;1.40;;;;;;;;;;1913255;74;26306;-42
2022/05/06 09:32:16;;;;;;;2.12;1.40;;;;;;;;;;1918358;74;26325;-45
2022/05/06 09:34:45;;;;;;;1.40;1.30;;;;;;;;;;1909925;74;26372;-48
2022/05/06 09:37:12;;;;;;;3.95;1.45;;;;;;;;;;1901777;74;26278;-42
2022/05/06 09:39:39;;;;;;;4.10;1.70;;;;;;;;;;1922262;73;26253;-47
2022/05/06 09:42:07;;;;;;;4.97;1.47;;;;;;;;;;1930584;73;26307;-45
2022/05/06 09:44:35;;;;;;;5.30;1.62;;;;;;;;;;1925325;73;26653;-44
2022/05/06 09:47:11;;;;;;;4.65;1.50;;;;;;;;;;1924614;73;26226;-45
2022/05/06 09:49:40;;;;;;;3.10;1.32;;;;;;;;;;1929836;73;27151;-49
2022/05/06 09:52:11;;;;;;;2.52;1.45;;;;;;;;;;1922942;73;26253;-50
2022/05/06 09:54:41;;;;;;;4.65;1.67;;;;;;;;;;1927422;73;26249;-45
2022/05/06 09:57:11;;;;;;;2.55;1.40;;;;;;;;;;1910670;73;26509;-46
2022/05/06 09:59:39;;;;;;;1.42;1.32;;;;;;;;;;1930021;73;26221;-45
2022/05/06 10:02:06;;;;;;;2.58;1.40;;;;;;;;;;1928435;73;26420;-43
2022/05/06 10:04:35;;;;;;;1.55;1.40;;;;;;;;;;1929214;73;26670;-44
2022/05/06 10:07:04;;;;;;;3.92;1.40;;;;;;;;;;1927451;73;26781;-46
2022/05/06 10:09:37;;;;;;;1.52;1.30;;;;;;;;;;1919781;73;26788;-44
2022/05/06 10:12:05;;;;;;;2.15;1.32;;;;;;;;;;1930347;73;26603;-47
2022/05/06 10:14:33;;;;;;;1.50;1.30;;;;;;;;;;1927658;73;26692;-43
2022/05/06 10:17:00;;;;;;;2.12;1.40;;;;;;;;;;1929204;73;26355;-43
2022/05/06 10:19:28;;;;;;;1.80;1.30;;;;;;;;;;1929461;73;26230;-47
2022/05/06 10:21:55;;;;;;;1.40;1.30;;;;;;;;;;1919292;73;26706;-42
2022/05/06 10:24:23;;;;;;;3.90;1.30;;;;;;;;;;1940441;73;26714;-44
2022/05/06 10:26:51;;;;;;;1.35;1.25;;;;;;;;;;1921379;73;26252;-47
2022/05/06 10:32:25;;;;;;;1.42;1.32;;;;;;;;;;1927132;73;26273;-48
2022/05/06 10:35:04;;;;;;;2.10;1.47;;;;;;;;;;1932441;73;26641;-46
2022/05/06 10:37:43;;;;;;;1.57;1.30;;;;;;;;;;1927830;73;26806;-46
2022/05/06 10:40:24;;;;;;;2.62;1.30;;;;;;;;;;1909417;74;26254;-47
2022/05/06 10:42:53;;;;;;;1.40;1.30;;;;;;;;;;1899854;74;26299;-45
2022/05/06 10:45:24;;;;;;;1.32;1.22;;;;;;;;;;1911194;74;26755;-48
2022/05/06 10:47:52;;;;;;;1.70;1.50;;;;;;;;;;1911701;73;26334;-47
2022/05/06 10:50:22;;;;;;;1.87;1.40;;;;;;;;;;1908972;74;26704;-45
2022/05/06 10:52:49;;;;;;;1.30;1.22;;;;;;;;;;1906195;74;26255;-43
2022/05/06 10:55:17;;;;;;;5.03;1.32;;;;;;;;;;1909766;74;26264;-43
2022/05/06 10:57:48;;;;;;;3.05;1.60;;;;;;;;;;1905635;74;26409;-47
2022/05/06 11:00:16;;;;;;;2.50;1.25;;;;;;;;;;1899909;74;26348;-42
2022/05/06 11:02:44;;;;;;;1.12;1.10;;;;;;;;;;1912021;74;26239;-46
2022/05/06 11:05:14;;;;;;;1.50;1.37;;;;;;;;;;1912234;74;26640;-43
2022/05/06 11:07:43;;;;;;;2.45;1.35;;;;;;;;;;1904189;74;26249;-41
2022/05/06 11:10:11;;;;;;;1.30;1.17;;;;;;;;;;1899996;74;26297;-46
2022/05/06 11:12:43;;;;;;;2.05;1.30;;;;;;;;;;1909600;74;26317;-45
2022/05/06 11:15:15;;;;;;;1.30;1.15;;;;;;;;;;1914520;74;26328;-42
2022/05/06 11:17:43;;;;;;;1.85;1.40;;;;;;;;;;1914534;74;26824;-43
2022/05/06 11:20:18;;;;;;;2.15;1.10;;;;;;;;;;1898863;74;26269;-43
2022/05/06 11:22:53;;;;;;;1.20;1.10;;;;;;;;;;1908095;74;26243;-44
2022/05/06 11:25:22;;;;;;;1.62;1.40;;;;;;;;;;1904282;74;26317;-47
2022/05/06 11:27:50;;;;;;;1.40;1.30;;;;;;;;;;1915571;74;26280;-45
2022/05/06 11:30:18;;;;;;;1.10;1.00;;;;;;;;;;1893882;74;26224;-47
2022/05/06 11:32:49;;;;;;;1.00;1.00;;;;;;;;;;1913360;74;26837;-48
2022/05/06 11:35:21;;;;;;;1.00;1.00;;;;;;;;;;1913092;74;26282;-40
2022/05/06 11:37:49;;;;;;;0.80;0.80;;;;;;;;;;1909393;74;26284;-41
2022/05/06 11:42:53;;;;;;;1.20;1.10;;;;;;;;;;1911217;74;26797;-40
2022/05/06 11:48:06;;;;;;;1.72;1.42;;;;;;;;;;1900824;74;26266;-42
2022/05/06 11:50:35;;;;;;;1.17;1.10;;;;;;;;;;1922162;74;26307;-47
2022/05/06 11:53:04;;;;;;;1.95;1.30;;;;;;;;;;1914451;74;26567;-45
2022/05/06 11:55:32;;;;;;;1.22;1.00;;;;;;;;;;1910584;74;26584;-43
2022/05/06 11:58:00;;;;;;;3.50;1.17;;;;;;;;;;1902544;74;26541;-45
2022/05/06 12:00:29;;;;;;;1.82;1.10;;;;;;;;;;1905793;74;26175;-44
2022/05/06 12:02:59;;;;;;;1.20;1.07;;;;;;;;;;1906719;74;26269;-45
2022/05/06 12:05:26;;;;;;;1.42;1.10;;;;;;;;;;1913831;73;26324;-50
2022/05/06 12:07:53;;;;;;;1.07;0.93;;;;;;;;;;1910926;74;26245;-45
2022/05/06 12:10:24;;;;;;;2.33;1.12;;;;;;;;;;1912641;74;26290;-47
2022/05/06 12:12:52;;;;;;;1.00;1.00;;;;;;;;;;1913933;74;26292;-49
2022/05/06 12:15:20;;;;;;;1.20;1.10;;;;;;;;;;1915748;74;26281;-43
2022/05/06 12:17:47;;;;;;;1.35;1.00;;;;;;;;;;1912727;74;26308;-50
2022/05/06 12:20:34;;;;;;;1.00;1.00;;;;;;;;;;1909714;73;26653;-46
2022/05/06 12:23:02;;;;;;;1.10;1.10;;;;;;;;;;1905691;74;26187;-45
2022/05/06 12:25:29;;;;;;;2.17;1.20;;;;;;;;;;1909060;74;28549;-40
2022/05/06 12:28:09;;;;;;;1.17;1.10;;;;;;;;;;1909698;74;26241;-42
2022/05/06 12:30:37;;;;;;;1.42;1.12;;;;;;;;;;1906154;74;26748;-44
2022/05/06 12:33:09;;;;;;;5.08;1.17;;;;;;;;;;1909186;74;26809;-45
2022/05/06 12:35:55;;;;;;;1.75;1.20;;;;;;;;;;1924101;74;25927;-43
2022/05/06 12:38:31;;;;;;;1.00;1.00;;;;;;;;;;1921530;74;26865;-42
2022/05/06 12:40:55;;;;;;;4.35;1.20;;;;;;;;;;1884237;75;26348;-44
2022/05/06 12:43:27;;;;;;;1.77;1.07;;;;;;;;;;1876202;75;26307;-41
2022/05/06 12:45:55;;;;;;;1.90;0.90;;;;;;;;;;1886976;75;26726;-48
2022/05/06 12:51:08;;;;;;;1.20;1.10;;;;;;;;;;1880055;76;26796;-46
2022/05/06 12:53:36;;;;;;;4.00;1.00;;;;;;;;;;1881193;75;27218;-40
2022/05/06 12:56:04;;;;;;;1.37;0.90;;;;;;;;;;1886543;75;26221;-42
2022/05/06 12:58:32;;;;;;;1.02;1.02;;;;;;;;;;1871528;75;27484;-43
2022/05/06 13:01:00;;;;;;;1.55;1.30;;;;;;;;;;1880288;75;26319;-42
2022/05/06 13:03:29;;;;;;;2.95;1.20;;;;;;;;;;1902789;75;26802;-46
2022/05/06 13:05:56;;;;;;;1.00;1.00;;;;;;;;;;1862553;76;26256;-47
2022/05/06 13:08:24;;;;;;;2.60;1.10;;;;;;;;;;1877939;75;26578;-44
2022/05/06 13:10:52;;;;;;;1.82;1.20;;;;;;;;;;1875474;75;26317;-49
2022/05/06 13:13:19;;;;;;;4.08;1.00;;;;;;;;;;1889631;75;26342;-42
2022/05/06 13:15:47;;;;;;;1.10;1.10;;;;;;;;;;1871707;75;26268;-44
2022/05/06 13:18:15;;;;;;;4.70;1.15;;;;;;;;;;1886656;75;26303;-44
2022/05/06 13:20:44;;;;;;;2.95;1.35;;;;;;;;;;1860573;75;26766;-47
2022/05/06 13:23:11;;;;;;;2.10;1.25;;;;;;;;;;1879434;75;26833;-45
2022/05/06 13:25:38;;;;;;;5.97;1.30;;;;;;;;;;1893778;75;26740;-46
2022/05/06 13:28:06;;;;;;;2.10;1.50;;;;;;;;;;1880907;75;26818;-46
2022/05/06 13:30:34;;;;;;;3.80;1.60;;;;;;;;;;1886540;75;26362;-47
2022/05/06 13:33:01;;;;;;;3.47;1.60;;;;;;;;;;1894381;75;26327;-43
2022/05/06 13:35:28;;;;;;;3.25;1.60;;;;;;;;;;1896469;75;26928;-45
2022/05/06 13:37:56;;;;;;;5.40;1.70;;;;;;;;;;1898814;75;26253;-46
2022/05/06 13:40:23;;;;;;;1.85;1.50;;;;;;;;;;1902192;74;26329;-45
2022/05/06 13:42:50;;;;;;;5.40;1.60;;;;;;;;;;1904023;74;26792;-42
2022/05/06 13:45:18;;;;;;;4.55;1.60;;;;;;;;;;1908431;74;26706;-42
2022/05/06 13:47:46;;;;;;;4.37;1.67;;;;;;;;;;1905767;74;26314;-46
2022/05/06 13:50:14;;;;;;;6.60;2.08;;;;;;;;;;1905649;74;26339;-46
2022/05/06 13:52:42;;;;;;;2.83;1.60;;;;;;;;;;1906351;74;26714;-45
2022/05/06 13:55:10;;;;;;;6.85;1.92;;;;;;;;;;1912398;74;26249;-47
2022/05/06 14:00:24;;;;;;;5.25;1.50;;;;;;;;;;1901939;74;26450;-45
2022/05/06 14:02:54;;;;;;;1.65;1.50;;;;;;;;;;1923256;73;26268;-46
2022/05/06 14:05:21;;;;;;;1.30;1.20;;;;;;;;;;1909640;74;26238;-50
2022/05/06 14:07:48;;;;;;;2.90;1.20;;;;;;;;;;1906004;74;26327;-45
2022/05/06 14:10:16;;;;;;;1.52;1.30;;;;;;;;;;1903389;74;26329;-45
2022/05/06 14:12:44;;;;;;;2.87;1.12;;;;;;;;;;1903940;74;26278;-46
2022/05/06 14:15:11;;;;;;;1.82;1.40;;;;;;;;;;1913127;74;26279;-48
2022/05/06 14:17:38;;;;;;;2.45;1.02;;;;;;;;;;1908530;74;26765;-43
2022/05/06 14:20:06;;;;;;;1.92;1.30;;;;;;;;;;1904643;74;26309;-47
2022/05/06 14:22:33;;;;;;;1.00;1.00;;;;;;;;;;1900686;74;26290;-47
2022/05/06 14:25:01;;;;;;;1.22;1.10;;;;;;;;;;1910868;74;26829;-42
2022/05/06 14:27:28;;;;;;;1.30;1.20;;;;;;;;;;1900663;74;26719;-42
2022/05/06 14:29:56;;;;;;;1.00;1.00;;;;;;;;;;1903824;74;26371;-53
2022/05/06 14:32:23;;;;;;;1.98;0.98;;;;;;;;;;1899426;74;26737;-46
2022/05/06 14:34:51;;;;;;;1.05;1.00;;;;;;;;;;1896966;74;26301;-46
2022/05/06 14:37:18;;;;;;;2.55;1.10;;;;;;;;;;1904443;74;26324;-42
2022/05/06 14:39:45;;;;;;;1.30;1.20;;;;;;;;;;1911970;74;26365;-50
2022/05/06 14:42:13;;;;;;;1.80;1.00;;;;;;;;;;1920787;73;26347;-46
2022/05/06 14:44:40;;;;;;;1.05;1.05;;;;;;;;;;1923226;74;26278;-47
2022/05/06 14:47:09;;;;;;;2.37;1.05;;;;;;;;;;1920744;74;26309;-44
2022/05/06 14:49:36;;;;;;;1.10;1.00;;;;;;;;;;1923408;74;26711;-42
2022/05/06 14:52:05;;;;;;;1.22;0.90;;;;;;;;;;1923166;74;26258;-42
2022/05/06 14:54:32;;;;;;;1.32;1.00;;;;;;;;;;1924275;74;26242;-47
2022/05/06 14:57:00;;;;;;;1.00;1.00;;;;;;;;;;1923505;74;26262;-45
2022/05/06 14:59:27;;;;;;;0.80;0.80;;;;;;;;;;1923808;74;26245;-44
2022/05/06 15:01:54;;;;;;;1.00;1.00;;;;;;;;;;1923000;74;26319;-45
2022/05/06 15:04:22;;;;;;;1.92;0.80;;;;;;;;;;1923157;73;26250;-44
2022/05/06 15:06:49;;;;;;;1.40;1.10;;;;;;;;;;1923485;74;26815;-47
2022/05/06 15:09:20;;;;;;;0.78;0.78;;;;;;;;;;1921710;74;26374;-49
2022/05/06 15:11:45;;;;;;;0.70;0.70;;;;;;;;;;1921200;74;26856;-46
2022/05/06 15:14:12;;;;;;;0.93;0.93;;;;;;;;;;1920757;74;27232;-46
2022/05/06 15:16:40;;;;;;;1.62;0.80;;;;;;;;;;1920263;74;26249;-46
2022/05/06 15:19:27;;;;;;;0.90;0.90;;;;;;;;;;1922884;74;26250;-43
2022/05/06 15:21:55;;;;;;;0.90;0.90;;;;;;;;;;1922833;74;26797;-46
2022/05/06 15:24:26;;;;;;;0.88;0.88;;;;;;;;;;1919169;74;26366;-42
2022/05/06 15:26:54;;;;;;;0.80;0.80;;;;;;;;;;1922047;74;27210;-42
2022/05/06 15:29:21;;;;;;;0.90;0.90;;;;;;;;;;1921411;74;26284;-49
2022/05/06 15:31:49;;;;;;;0.80;0.80;;;;;;;;;;1916856;74;26748;-47
2022/05/06 15:34:16;;;;;;;0.85;0.85;;;;;;;;;;1922892;74;26234;-44
2022/05/06 15:36:43;;;;;;;16.52;1.47;;;;;;;;;;1916984;74;26248;-46
2022/05/06 15:39:10;;;;;;;1.00;0.93;;;;;;;;;;1916907;74;26352;-44